Time;durP1;ratioP1;P1;durP2;ratioP2;P2;SDS_P1;SDS_P2;PMS_P1;PMS_P2;Temp;Humidity;BMP_temperature;BMP_pressure;BME280_temperature;BME280_humidity;BME280_pressure;Samples;Min_cycle;Max_cycle;Signal;HPM_P1;HPM_P2
2023/05/05 00:00:38;;;;;;;;;;;;;;;17.17;90.59;98098.88;5089113;28;19958;-71
2023/05/05 00:03:04;;;;;;;;;;;;;;;17.32;89.51;98097.75;5087298;28;20011;-71
2023/05/05 00:05:31;;;;;;;;;;;;;;;17.45;87.91;98093.44;5088027;28;19972;-71
2023/05/05 00:07:57;;;;;;;;;;;;;;;17.52;86.68;98099.22;5090149;28;19967;-71
2023/05/05 00:10:25;;;;;;;;;;;;;;;17.57;85.88;98091.03;5087003;28;19925;-71
2023/05/05 00:12:51;;;;;;;;;;;;;;;17.58;85.11;98093.44;5080813;28;19925;-71
2023/05/05 00:15:18;;;;;;;;;;;;;;;17.56;84.96;98078.63;5083793;28;19925;-71
2023/05/05 00:17:45;;;;;;;;;;;;;;;17.55;85.09;98077.84;5084139;28;19924;-71
2023/05/05 00:20:12;;;;;;;;;;;;;;;17.52;84.40;98078.41;5081279;28;19925;-72
2023/05/05 00:22:38;;;;;;;;;;;;;;;17.48;84.45;98077.44;5080844;28;20270;-71
2023/05/05 00:25:06;;;;;;;;;;;;;;;17.43;84.63;98082.13;5082904;28;19925;-71
2023/05/05 00:27:33;;;;;;;;;;;;;;;17.36;84.71;98082.53;5084240;28;19985;-71
2023/05/05 00:30:00;;;;;;;;;;;;;;;17.35;85.14;98077.44;5082644;28;19963;-71
2023/05/05 00:32:26;;;;;;;;;;;;;;;17.33;85.21;98077.75;5080419;28;19925;-71
2023/05/05 00:34:53;;;;;;;;;;;;;;;17.29;85.47;98079.47;5080210;28;19925;-70
2023/05/05 00:37:19;;;;;;;;;;;;;;;17.24;85.52;98074.97;5076537;28;20020;-70
2023/05/05 00:39:46;;;;;;;;;;;;;;;17.25;86.10;98081.97;5082721;28;19924;-70
2023/05/05 00:42:12;;;;;;;;;;;;;;;17.26;85.80;98080.88;5080452;28;19947;-70
2023/05/05 00:44:40;;;;;;;;;;;;;;;17.20;85.79;98084.78;5080063;28;19947;-72
2023/05/05 00:47:07;;;;;;;;;;;;;;;17.13;85.89;98078.19;5081158;28;19924;-71
2023/05/05 00:49:34;;;;;;;;;;;;;;;17.15;86.07;98078.66;5082106;28;19925;-71
2023/05/05 00:52:00;;;;;;;;;;;;;;;17.07;85.94;98076.69;5081740;28;19935;-71
2023/05/05 00:54:27;;;;;;;;;;;;;;;17.09;86.24;98074.47;5079700;28;19924;-71
2023/05/05 00:56:54;;;;;;;;;;;;;;;17.06;86.13;98067.78;5079219;28;19975;-71
2023/05/05 00:59:20;;;;;;;;;;;;;;;17.11;85.99;98066.88;5082879;28;19924;-71
2023/05/05 01:01:49;;;;;;;;;;;;;;;17.03;86.03;98062.97;5087243;28;19925;-71
2023/05/05 01:04:16;;;;;;;;;;;;;;;17.01;86.05;98062.50;5081828;28;19925;-71
2023/05/05 01:06:48;;;;;;;;;;;;;;;17.04;86.10;98069.19;5073855;28;20549;-71
2023/05/05 01:09:20;;;;;;;;;;;;;;;17.02;86.36;98064.06;5081592;28;19925;-71
2023/05/05 01:11:51;;;;;;;;;;;;;;;16.91;86.20;98054.59;5082934;28;19977;-71
2023/05/05 01:14:19;;;;;;;;;;;;;;;16.91;86.65;98057.28;5074916;28;19999;-71
2023/05/05 01:16:53;;;;;;;;;;;;;;;16.86;87.08;98053.91;5082905;28;19934;-71
2023/05/05 01:19:29;;;;;;;;;;;;;;;16.83;87.30;98043.72;5075285;28;19924;-71
2023/05/05 01:21:59;;;;;;;;;;;;;;;16.84;87.26;98056.09;5081804;28;19924;-71
2023/05/05 01:24:43;;;;;;;;;;;;;;;16.83;87.59;98057.19;5078129;28;19925;-71
2023/05/05 01:27:30;;;;;;;;;;;;;;;16.86;87.43;98068.19;5082237;28;19932;-71
2023/05/05 01:30:03;;;;;;;;;;;;;;;16.84;87.33;98059.59;5080102;28;19930;-71
2023/05/05 01:32:33;;;;;;;;;;;;;;;16.80;87.28;98053.22;5079088;28;19956;-71
2023/05/05 01:35:01;;;;;;;;;;;;;;;16.76;87.72;98049.50;5079031;28;19992;-71
2023/05/05 01:37:29;;;;;;;;;;;;;;;16.72;88.18;98056.59;5075014;28;20492;-72
2023/05/05 01:39:57;;;;;;;;;;;;;;;16.72;88.43;98046.59;5086971;28;19924;-72
2023/05/05 01:42:25;;;;;;;;;;;;;;;16.68;88.52;98059.06;5082460;28;19925;-73
2023/05/05 01:44:52;;;;;;;;;;;;;;;16.62;88.75;98056.78;5081809;28;19928;-70
2023/05/05 01:47:19;;;;;;;;;;;;;;;16.68;89.30;98059.06;5078558;28;19986;-71
2023/05/05 01:49:47;;;;;;;;;;;;;;;16.60;89.72;98054.38;5078655;28;19925;-70
2023/05/05 01:52:15;;;;;;;;;;;;;;;16.60;89.45;98053.59;5082112;28;19924;-70
2023/05/05 01:54:42;;;;;;;;;;;;;;;16.56;89.97;98057.97;5080350;28;19924;-70
2023/05/05 01:57:10;;;;;;;;;;;;;;;16.53;89.94;98048.53;5079191;28;19924;-70
2023/05/05 01:59:37;;;;;;;;;;;;;;;16.55;89.96;98048.28;5077150;28;19985;-70
2023/05/05 02:02:05;;;;;;;;;;;;;;;16.56;89.86;98049.88;5080524;28;20382;-71
2023/05/05 02:04:32;;;;;;;;;;;;;;;16.56;89.69;98047.19;5081834;28;20621;-71
2023/05/05 02:07:01;;;;;;;;;;;;;;;16.59;89.54;98054.66;5072927;28;19952;-71
2023/05/05 02:09:28;;;;;;;;;;;;;;;16.56;89.86;98055.25;5081661;28;19952;-71
2023/05/05 02:11:56;;;;;;;;;;;;;;;16.49;89.96;98050.25;5080974;28;20244;-71
2023/05/05 02:14:23;;;;;;;;;;;;;;;16.47;90.22;98051.63;5078074;28;19928;-71
2023/05/05 02:16:50;;;;;;;;;;;;;;;16.46;90.19;98055.44;5078284;28;19924;-72
2023/05/05 02:19:18;;;;;;;;;;;;;;;16.43;90.42;98058.72;5081612;28;19987;-71
2023/05/05 02:21:45;;;;;;;;;;;;;;;16.42;90.80;98065.22;5081541;28;20103;-71
2023/05/05 02:24:13;;;;;;;;;;;;;;;16.48;90.33;98067.53;5078415;28;19984;-71
2023/05/05 02:26:40;;;;;;;;;;;;;;;16.44;90.23;98069.19;5077978;28;19980;-71
2023/05/05 02:29:07;;;;;;;;;;;;;;;16.42;90.42;98057.94;5079202;28;19925;-71
2023/05/05 02:31:36;;;;;;;;;;;;;;;16.25;91.46;98065.75;5081346;28;19931;-71
2023/05/05 02:34:05;;;;;;;;;;;;;;;16.27;91.85;98068.16;5080295;28;20003;-71
2023/05/05 02:36:33;;;;;;;;;;;;;;;16.19;91.98;98062.34;5074675;28;19928;-71
2023/05/05 02:39:03;;;;;;;;;;;;;;;15.84;95.21;98071.03;5084324;28;19988;-72
2023/05/05 02:41:32;;;;;;;;;;;;;;;15.37;98.98;98082.69;5077516;28;19925;-72
2023/05/05 02:43:59;;;;;;;;;;;;;;;15.26;100.00;98070.44;5084950;28;20494;-71
2023/05/05 02:46:27;;;;;;;;;;;;;;;15.26;100.00;98069.66;5081305;28;19970;-71
2023/05/05 02:48:53;;;;;;;;;;;;;;;15.56;100.00;98062.00;5080361;28;19966;-71
2023/05/05 02:51:20;;;;;;;;;;;;;;;15.56;99.46;98061.22;5077910;28;19984;-72
2023/05/05 02:53:46;;;;;;;;;;;;;;;15.62;99.02;98068.13;5077654;28;19929;-71
2023/05/05 02:56:17;;;;;;;;;;;;;;;15.37;100.00;98058.47;5079529;28;19925;-71
2023/05/05 02:58:50;;;;;;;;;;;;;;;15.14;100.00;98057.44;5079853;28;19924;-70
2023/05/05 03:01:21;;;;;;;;;;;;;;;15.16;100.00;98061.72;5077397;28;20011;-70
2023/05/05 03:03:52;;;;;;;;;;;;;;;15.62;100.00;98058.16;5077406;28;19968;-70
2023/05/05 03:06:19;;;;;;;;;;;;;;;15.85;97.84;98056.44;5068582;28;19925;-71
2023/05/05 03:08:50;;;;;;;;;;;;;;;15.92;95.87;98056.88;5077704;28;19925;-70
2023/05/05 03:11:22;;;;;;;;;;;;;;;15.98;94.54;98055.69;5073250;28;19924;-71
2023/05/05 03:13:51;;;;;;;;;;;;;;;16.01;93.57;98048.91;5081316;28;19924;-70
2023/05/05 03:16:18;;;;;;;;;;;;;;;16.01;93.61;98047.03;5076398;28;19925;-70
2023/05/05 03:18:45;;;;;;;;;;;;;;;16.05;93.08;98056.13;5081001;28;19979;-70
2023/05/05 03:21:12;;;;;;;;;;;;;;;16.04;92.76;98054.53;5077732;28;19921;-70
2023/05/05 03:23:38;;;;;;;;;;;;;;;15.96;92.90;98046.31;5077503;28;19932;-71
2023/05/05 03:26:04;;;;;;;;;;;;;;;15.99;92.98;98049.22;5079478;28;19925;-71
2023/05/05 03:28:31;;;;;;;;;;;;;;;16.03;92.61;98052.91;5087737;28;19992;-71
2023/05/05 03:30:59;;;;;;;;;;;;;;;16.00;92.48;98048.13;5079387;28;19931;-71
2023/05/05 03:33:25;;;;;;;;;;;;;;;16.00;92.45;98053.50;5076970;28;19970;-71
2023/05/05 03:35:51;;;;;;;;;;;;;;;15.98;92.56;98054.91;5076216;28;19976;-70
2023/05/05 03:38:18;;;;;;;;;;;;;;;15.75;92.64;98043.16;5076860;28;19967;-71
2023/05/05 03:40:44;;;;;;;;;;;;;;;15.74;94.59;98041.56;5083390;28;19924;-70
2023/05/05 03:43:10;;;;;;;;;;;;;;;15.82;93.70;98059.72;5080283;28;19925;-70
2023/05/05 03:45:37;;;;;;;;;;;;;;;15.86;93.02;98060.75;5079201;28;19960;-70
2023/05/05 03:48:05;;;;;;;;;;;;;;;15.85;92.62;98063.72;5079049;28;19964;-70
2023/05/05 03:50:31;;;;;;;;;;;;;;;15.78;92.72;98069.50;5079188;28;19982;-70
2023/05/05 03:52:57;;;;;;;;;;;;;;;15.81;92.75;98066.22;5086444;28;19970;-70
2023/05/05 03:55:24;;;;;;;;;;;;;;;15.82;92.65;98057.03;5078810;28;19995;-70
2023/05/05 03:57:51;;;;;;;;;;;;;;;15.79;92.82;98052.22;5079951;28;19924;-70
2023/05/05 04:00:17;;;;;;;;;;;;;;;15.81;92.81;98060.84;5076996;28;19980;-71
2023/05/05 04:02:44;;;;;;;;;;;;;;;15.80;92.68;98059.22;5076691;28;19992;-70
2023/05/05 04:05:11;;;;;;;;;;;;;;;15.76;93.20;98058.19;5076581;28;19963;-70
2023/05/05 04:07:38;;;;;;;;;;;;;;;15.81;92.95;98060.84;5075220;28;19984;-72
2023/05/05 04:10:05;;;;;;;;;;;;;;;15.78;92.71;98053.34;5078323;28;19959;-72
2023/05/05 04:12:31;;;;;;;;;;;;;;;15.74;93.52;98060.41;5075663;28;20601;-72
2023/05/05 04:14:57;;;;;;;;;;;;;;;15.75;93.48;98066.59;5077828;28;19925;-72
2023/05/05 04:17:24;;;;;;;;;;;;;;;15.77;93.35;98065.19;5082945;28;19929;-72
2023/05/05 04:19:50;;;;;;;;;;;;;;;15.79;93.23;98068.38;5083912;28;19920;-72
2023/05/05 04:22:18;;;;;;;;;;;;;;;15.71;93.36;98074.44;5080502;28;20438;-72
2023/05/05 04:24:44;;;;;;;;;;;;;;;15.67;93.65;98057.25;5080608;28;19925;-72
2023/05/05 04:27:10;;;;;;;;;;;;;;;15.46;94.76;98061.31;5083501;28;20034;-72
2023/05/05 04:29:37;;;;;;;;;;;;;;;15.40;96.63;98062.47;5083945;28;19952;-72
2023/05/05 04:32:03;;;;;;;;;;;;;;;15.57;95.64;98058.22;5082144;28;19928;-71
2023/05/05 04:34:30;;;;;;;;;;;;;;;15.59;94.79;98061.44;5083659;28;19928;-70
2023/05/05 04:36:56;;;;;;;;;;;;;;;15.68;93.81;98063.47;5083775;28;19924;-71
2023/05/05 04:39:24;;;;;;;;;;;;;;;15.65;94.15;98071.03;5088894;28;19933;-71
2023/05/05 04:41:50;;;;;;;;;;;;;;;15.72;93.98;98069.88;5089007;28;19987;-70
2023/05/05 04:44:17;;;;;;;;;;;;;;;15.75;93.82;98067.41;5083777;28;19924;-70
2023/05/05 04:46:43;;;;;;;;;;;;;;;15.66;94.09;98067.22;5083760;28;19928;-70
2023/05/05 04:49:09;;;;;;;;;;;;;;;15.71;94.42;98066.38;5080951;28;20516;-71
2023/05/05 04:51:36;;;;;;;;;;;;;;;15.67;95.10;98078.81;5080361;28;19935;-71
2023/05/05 04:54:02;;;;;;;;;;;;;;;15.65;95.21;98072.91;5082209;28;19924;-71
2023/05/05 04:56:31;;;;;;;;;;;;;;;15.59;96.20;98077.59;5083203;28;19924;-70
2023/05/05 04:58:58;;;;;;;;;;;;;;;15.74;95.81;98071.16;5082453;28;19989;-71
2023/05/05 05:01:24;;;;;;;;;;;;;;;15.73;95.30;98072.25;5079989;28;19925;-71
2023/05/05 05:03:51;;;;;;;;;;;;;;;15.53;96.93;98076.06;5080176;28;19996;-71
2023/05/05 05:06:17;;;;;;;;;;;;;;;15.60;96.75;98075.66;5078655;28;19925;-71
2023/05/05 05:08:43;;;;;;;;;;;;;;;15.69;96.05;98079.31;5079860;28;19968;-71
2023/05/05 05:11:10;;;;;;;;;;;;;;;15.60;96.55;98076.47;5082779;28;19928;-71
2023/05/05 05:13:37;;;;;;;;;;;;;;;15.60;96.47;98086.44;5082021;28;20496;-71
2023/05/05 05:16:04;;;;;;;;;;;;;;;15.61;96.33;98083.47;5079593;28;19928;-71
2023/05/05 05:18:30;;;;;;;;;;;;;;;15.65;95.97;98079.09;5079522;28;20003;-71
2023/05/05 05:20:57;;;;;;;;;;;;;;;15.68;95.55;98077.72;5080544;28;19951;-71
2023/05/05 05:23:23;;;;;;;;;;;;;;;15.70;95.42;98080.91;5083112;28;20000;-71
2023/05/05 05:25:49;;;;;;;;;;;;;;;15.74;94.96;98081.94;5082819;28;20030;-71
2023/05/05 05:28:16;;;;;;;;;;;;;;;15.72;95.17;98086.03;5078601;28;19963;-71
2023/05/05 05:30:44;;;;;;;;;;;;;;;15.78;94.71;98077.56;5079563;28;19994;-71
2023/05/05 05:33:10;;;;;;;;;;;;;;;15.77;94.82;98080.56;5081269;28;19960;-71
2023/05/05 05:35:37;;;;;;;;;;;;;;;15.75;95.10;98080.84;5075069;28;20007;-70
2023/05/05 05:38:03;;;;;;;;;;;;;;;15.66;95.58;98079.88;5079483;28;20276;-71
2023/05/05 05:40:30;;;;;;;;;;;;;;;15.70;95.78;98097.06;5079578;28;19928;-70
2023/05/05 05:42:56;;;;;;;;;;;;;;;15.67;96.35;98092.25;5080155;28;20007;-70
2023/05/05 05:45:22;;;;;;;;;;;;;;;15.68;94.86;98095.75;5082775;28;19959;-70
2023/05/05 05:47:50;;;;;;;;;;;;;;;15.92;94.45;98099.97;5082573;28;19959;-70
2023/05/05 05:50:17;;;;;;;;;;;;;;;15.94;94.38;98097.78;5078850;28;19925;-70
2023/05/05 05:52:43;;;;;;;;;;;;;;;15.78;94.91;98096.44;5079149;28;19924;-71
2023/05/05 05:55:09;;;;;;;;;;;;;;;16.01;94.39;98094.72;5081583;28;19980;-71
2023/05/05 05:57:36;;;;;;;;;;;;;;;15.76;95.49;98095.91;5082542;28;19924;-71
2023/05/05 06:00:03;;;;;;;;;;;;;;;15.50;98.13;98102.75;5074064;28;19988;-71
2023/05/05 06:02:29;;;;;;;;;;;;;;;14.99;100.00;98097.16;5082829;28;19967;-71
2023/05/05 06:04:57;;;;;;;;;;;;;;;15.36;100.00;98101.81;5080776;28;19966;-71
2023/05/05 06:07:24;;;;;;;;;;;;;;;15.76;100.00;98101.28;5074848;28;19931;-71
2023/05/05 06:09:50;;;;;;;;;;;;;;;15.90;98.38;98098.66;5081908;28;19921;-71
2023/05/05 06:12:16;;;;;;;;;;;;;;;15.64;98.22;98099.03;5078335;28;20008;-73
2023/05/05 06:14:43;;;;;;;;;;;;;;;15.07;100.00;98100.00;5078203;28;19925;-70
2023/05/05 06:17:09;;;;;;;;;;;;;;;14.91;100.00;98095.91;5081061;28;19924;-71
2023/05/05 06:19:38;;;;;;;;;;;;;;;14.61;100.00;98101.59;5081746;28;19924;-70
2023/05/05 06:22:06;;;;;;;;;;;;;;;14.86;100.00;98093.25;5079737;28;20052;-70
2023/05/05 06:24:32;;;;;;;;;;;;;;;15.10;100.00;98093.28;5078254;28;20378;-70
2023/05/05 06:26:59;;;;;;;;;;;;;;;15.02;100.00;98092.00;5079395;28;20015;-69
2023/05/05 06:29:25;;;;;;;;;;;;;;;15.20;100.00;98095.00;5080204;28;19952;-70
2023/05/05 06:31:52;;;;;;;;;;;;;;;15.50;100.00;98098.16;5080995;28;19984;-70
2023/05/05 06:34:18;;;;;;;;;;;;;;;15.37;100.00;98089.97;5077731;28;19959;-71
2023/05/05 06:36:44;;;;;;;;;;;;;;;15.31;100.00;98094.63;5072475;28;19978;-71
2023/05/05 06:39:12;;;;;;;;;;;;;;;15.40;99.37;98095.56;5079272;28;20011;-71
2023/05/05 06:41:39;;;;;;;;;;;;;;;15.18;97.60;98089.13;5081074;28;19934;-70
2023/05/05 06:44:05;;;;;;;;;;;;;;;15.28;97.73;98089.00;5078939;28;19935;-71
2023/05/05 06:46:31;;;;;;;;;;;;;;;15.22;98.41;98090.16;5077451;28;20068;-70
2023/05/05 06:48:58;;;;;;;;;;;;;;;15.29;98.91;98090.63;5078697;28;19929;-71
2023/05/05 06:51:25;;;;;;;;;;;;;;;15.68;98.27;98085.81;5079597;28;20003;-71
2023/05/05 06:53:51;;;;;;;;;;;;;;;16.12;94.12;98098.88;5080900;28;20441;-71
2023/05/05 06:56:19;;;;;;;;;;;;;;;16.22;93.06;98106.00;5076513;28;19956;-71
2023/05/05 06:58:46;;;;;;;;;;;;;;;16.22;91.25;98117.53;5077758;28;20122;-71
2023/05/05 07:01:12;;;;;;;;;;;;;;;16.15;90.07;98125.22;5080819;28;19931;-73
2023/05/05 07:03:39;;;;;;;;;;;;;;;15.29;93.61;98118.31;5081226;28;19924;-71
2023/05/05 07:06:05;;;;;;;;;;;;;;;15.14;97.63;98116.59;5070439;28;19952;-71
2023/05/05 07:08:32;;;;;;;;;;;;;;;15.35;98.07;98127.13;5077463;28;19925;-71
2023/05/05 07:10:59;;;;;;;;;;;;;;;15.18;99.35;98124.09;5078642;28;19947;-71
2023/05/05 07:13:27;;;;;;;;;;;;;;;15.24;100.00;98131.03;5080849;28;19935;-71
2023/05/05 07:15:53;;;;;;;;;;;;;;;15.35;100.00;98137.91;5080341;28;19924;-71
2023/05/05 07:18:20;;;;;;;;;;;;;;;16.21;95.91;98126.75;5076164;28;19928;-71
2023/05/05 07:20:47;;;;;;;;;;;;;;;16.54;92.65;98122.16;5076205;28;19944;-71
2023/05/05 07:23:13;;;;;;;;;;;;;;;16.29;91.96;98117.19;5080662;28;19947;-71
2023/05/05 07:25:40;;;;;;;;;;;;;;;16.18;93.49;98125.41;5081006;28;19971;-71
2023/05/05 07:28:06;;;;;;;;;;;;;;;15.99;93.29;98110.38;5078656;28;19996;-71
2023/05/05 07:30:34;;;;;;;;;;;;;;;15.80;95.94;98101.50;5077501;28;19960;-71
2023/05/05 07:33:00;;;;;;;;;;;;;;;15.74;97.53;98099.97;5077708;28;20668;-71
2023/05/05 07:35:26;;;;;;;;;;;;;;;15.84;98.02;98091.75;5075489;28;19960;-71
2023/05/05 07:37:53;;;;;;;;;;;;;;;15.83;97.67;98096.34;5077277;28;20002;-71
2023/05/05 07:40:19;;;;;;;;;;;;;;;15.91;96.58;98087.59;5075899;28;19975;-71
2023/05/05 07:42:46;;;;;;;;;;;;;;;16.03;95.92;98085.25;5077058;28;19928;-71
2023/05/05 07:45:12;;;;;;;;;;;;;;;16.20;95.76;98073.94;5080256;28;19966;-71
2023/05/05 07:47:40;;;;;;;;;;;;;;;16.05;95.95;98071.50;5080601;28;19924;-71
2023/05/05 07:50:07;;;;;;;;;;;;;;;15.93;96.97;98074.66;5078585;28;19947;-70
2023/05/05 07:52:33;;;;;;;;;;;;;;;16.08;95.58;98079.00;5080419;28;19952;-71
2023/05/05 07:55:00;;;;;;;;;;;;;;;16.28;95.59;98080.56;5082269;28;19988;-71
2023/05/05 07:57:26;;;;;;;;;;;;;;;16.35;96.59;98091.75;5083371;28;19972;-71
2023/05/05 07:59:52;;;;;;;;;;;;;;;16.34;96.14;98082.06;5084347;28;19924;-71
2023/05/05 08:02:19;;;;;;;;;;;;;;;16.29;98.24;98076.75;5080870;28;19952;-71
2023/05/05 08:04:47;;;;;;;;;;;;;;;16.50;97.10;98083.38;5080738;28;19929;-71
2023/05/05 08:07:13;;;;;;;;;;;;;;;16.54;94.74;98079.00;5075720;28;20000;-71
2023/05/05 08:09:40;;;;;;;;;;;;;;;16.81;93.60;98078.25;5083134;28;19924;-71
2023/05/05 08:12:07;;;;;;;;;;;;;;;16.79;91.62;98083.16;5081664;28;20396;-70
2023/05/05 08:14:33;;;;;;;;;;;;;;;16.58;92.79;98069.28;5080626;28;19924;-70
2023/05/05 08:16:59;;;;;;;;;;;;;;;16.60;95.22;98072.44;5081751;28;20348;-70
2023/05/05 08:19:26;;;;;;;;;;;;;;;16.71;95.95;98073.88;5084209;28;19929;-71
2023/05/05 08:21:54;;;;;;;;;;;;;;;16.89;95.81;98064.09;5083130;28;20471;-70
2023/05/05 08:24:21;;;;;;;;;;;;;;;16.71;92.92;98073.88;5081257;28;19940;-70
2023/05/05 08:26:48;;;;;;;;;;;;;;;16.67;93.43;98070.19;5088552;28;19928;-70
2023/05/05 08:29:14;;;;;;;;;;;;;;;16.81;93.76;98070.97;5082785;28;19931;-70
2023/05/05 08:31:40;;;;;;;;;;;;;;;17.05;93.25;98065.41;5085278;28;19925;-70
2023/05/05 08:34:07;;;;;;;;;;;;;;;17.10;92.21;98066.09;5082464;28;19992;-70
2023/05/05 08:36:33;;;;;;;;;;;;;;;17.30;92.14;98072.16;5084947;28;19992;-70
2023/05/05 08:39:01;;;;;;;;;;;;;;;17.31;91.69;98062.94;5081881;28;20396;-70
2023/05/05 08:41:27;;;;;;;;;;;;;;;17.64;91.31;98069.84;5081275;28;19932;-72
2023/05/05 08:43:54;;;;;;;;;;;;;;;17.50;90.08;98080.63;5083414;28;19952;-71
2023/05/05 08:46:21;;;;;;;;;;;;;;;17.58;89.61;98061.03;5083361;28;20004;-70
2023/05/05 08:48:48;;;;;;;;;;;;;;;17.43;90.34;98063.22;5083147;28;19924;-70
2023/05/05 08:51:16;;;;;;;;;;;;;;;17.45;91.43;98063.75;5079914;28;19959;-71
2023/05/05 08:53:48;;;;;;;;;;;;;;;17.74;90.11;98070.38;5079838;28;20007;-71
2023/05/05 08:56:16;;;;;;;;;;;;;;;17.56;91.28;98067.84;5082916;28;19932;-71
2023/05/05 08:58:43;;;;;;;;;;;;;;;17.37;92.31;98072.53;5083078;28;19924;-71
2023/05/05 09:01:10;;;;;;;;;;;;;;;17.58;91.27;98060.22;5080122;28;19963;-71
2023/05/05 09:03:37;;;;;;;;;;;;;;;17.66;88.77;98067.63;5083176;28;19928;-71
2023/05/05 09:06:03;;;;;;;;;;;;;;;17.70;90.69;98052.41;5080405;28;19925;-70
2023/05/05 09:08:31;;;;;;;;;;;;;;;17.83;89.32;98051.53;5079299;28;19988;-70
2023/05/05 09:10:57;;;;;;;;;;;;;;;17.82;89.30;98060.75;5080003;28;19980;-70
2023/05/05 09:13:25;;;;;;;;;;;;;;;18.09;89.03;98055.25;5082478;28;20055;-69
2023/05/05 09:15:51;;;;;;;;;;;;;;;18.07;89.79;98057.44;5082573;28;19947;-70
2023/05/05 09:18:17;;;;;;;;;;;;;;;18.01;91.33;98045.16;5079186;28;19984;-69
2023/05/05 09:20:44;;;;;;;;;;;;;;;18.10;91.63;98051.44;5079051;28;19986;-70
2023/05/05 09:23:11;;;;;;;;;;;;;;;18.35;90.89;98048.06;5081885;28;20515;-70
2023/05/05 09:25:38;;;;;;;;;;;;;;;18.53;91.09;98045.50;5082481;28;19999;-70
2023/05/05 09:28:08;;;;;;;;;;;;;;;18.49;91.00;98049.91;5079483;28;19996;-70
2023/05/05 09:30:36;;;;;;;;;;;;;;;18.63;91.17;98047.94;5077893;28;19924;-69
2023/05/05 09:33:02;;;;;;;;;;;;;;;18.70;90.62;98053.69;5080714;28;19921;-69
2023/05/05 09:35:29;;;;;;;;;;;;;;;18.66;89.58;98044.63;5075982;28;19925;-70
2023/05/05 09:37:55;;;;;;;;;;;;;;;18.72;90.11;98043.38;5071332;28;19935;-71
2023/05/05 09:40:21;;;;;;;;;;;;;;;18.93;89.69;98038.19;5082473;28;19994;-70
2023/05/05 09:42:48;;;;;;;;;;;;;;;18.85;89.21;98042.44;5082425;28;19924;-70
2023/05/05 09:45:27;;;;;;;;;;;;;;;18.88;91.23;98033.69;5079029;28;20289;-70
2023/05/05 09:47:55;;;;;;;;;;;;;;;19.00;91.52;98041.25;5079173;28;20008;-71
2023/05/05 09:50:22;;;;;;;;;;;;;;;18.98;88.97;98040.75;5081124;28;19924;-70
2023/05/05 09:52:54;;;;;;;;;;;;;;;19.36;89.36;98041.78;5082065;28;19925;-70
2023/05/05 09:55:21;;;;;;;;;;;;;;;19.36;87.52;98039.88;5085896;28;19960;-70
2023/05/05 09:57:47;;;;;;;;;;;;;;;19.36;88.29;98039.88;5078210;28;19967;-69
2023/05/05 10:00:14;;;;;;;;;;;;;;;19.38;87.23;98036.84;5078852;28;19963;-70
2023/05/05 10:02:40;;;;;;;;;;;;;;;19.46;86.77;98043.44;5077481;28;19963;-70
2023/05/05 10:05:10;;;;;;;;;;;;;;;19.51;86.63;98037.84;5078651;28;19975;-69
2023/05/05 10:07:37;;;;;;;;;;;;;;;19.54;85.98;98043.44;5076965;28;19997;-69
2023/05/05 10:10:03;;;;;;;;;;;;;;;19.59;85.67;98027.00;5080317;28;19924;-69
2023/05/05 10:12:31;;;;;;;;;;;;;;;19.68;86.00;98033.22;5077371;28;19924;-70
2023/05/05 10:14:57;;;;;;;;;;;;;;;19.52;82.77;98032.13;5078884;28;19960;-69
2023/05/05 10:17:24;;;;;;;;;;;;;;;19.52;83.83;98020.50;5081642;28;19925;-69
2023/05/05 10:19:52;;;;;;;;;;;;;;;19.65;83.96;98014.13;5081546;28;19976;-70
2023/05/05 10:22:21;;;;;;;;;;;;;;;19.67;87.38;98020.00;5078267;28;20270;-70
2023/05/05 10:24:50;;;;;;;;;;;;;;;19.79;84.67;98018.25;5078099;28;19971;-70
2023/05/05 10:27:18;;;;;;;;;;;;;;;19.82;83.33;98019.53;5073550;28;19929;-70
2023/05/05 10:29:48;;;;;;;;;;;;;;;19.72;81.46;98017.94;5080190;28;19947;-70
2023/05/05 10:32:17;;;;;;;;;;;;;;;19.73;82.96;98018.75;5078041;28;19963;-70
2023/05/05 10:34:49;;;;;;;;;;;;;;;19.70;83.91;98011.25;5077914;28;19925;-71
2023/05/05 10:37:16;;;;;;;;;;;;;;;19.66;83.89;98002.16;5077957;28;19925;-70
2023/05/05 10:39:44;;;;;;;;;;;;;;;19.81;83.19;98007.09;5077923;28;19920;-70
2023/05/05 10:42:12;;;;;;;;;;;;;;;19.88;81.99;97997.38;5080452;28;19991;-71
2023/05/05 10:44:38;;;;;;;;;;;;;;;19.82;83.14;98004.06;5080935;28;20336;-70
2023/05/05 10:47:05;;;;;;;;;;;;;;;20.03;84.09;97997.97;5078796;28;20011;-70
2023/05/05 10:49:35;;;;;;;;;;;;;;;20.03;84.47;98000.69;5077482;28;20258;-70
2023/05/05 10:52:08;;;;;;;;;;;;;;;20.15;85.03;98004.31;5078462;28;20213;-70
2023/05/05 10:54:38;;;;;;;;;;;;;;;20.34;85.96;98004.78;5080947;28;19952;-71
2023/05/05 10:57:09;;;;;;;;;;;;;;;20.30;84.90;97990.28;5077737;28;19928;-70
2023/05/05 10:59:40;;;;;;;;;;;;;;;20.40;84.67;97992.63;5077570;28;19924;-70
2023/05/05 11:02:17;;;;;;;;;;;;;;;20.41;81.15;97994.25;5079640;28;19925;-70
2023/05/05 11:04:44;;;;;;;;;;;;;;;20.36;82.61;97991.69;5080934;28;19975;-70
2023/05/05 11:07:24;;;;;;;;;;;;;;;20.49;82.85;97995.31;5071847;28;20031;-70
2023/05/05 11:09:55;;;;;;;;;;;;;;;20.59;79.81;97991.44;5080738;28;19942;-70
2023/05/05 11:12:22;;;;;;;;;;;;;;;20.64;80.65;97980.44;5076399;28;19960;-70
2023/05/05 11:15:04;;;;;;;;;;;;;;;20.67;80.20;97979.78;5077160;28;20314;-70
2023/05/05 11:17:44;;;;;;;;;;;;;;;20.72;80.64;97960.59;5074373;28;19952;-70
2023/05/05 11:20:10;;;;;;;;;;;;;;;20.63;83.30;97963.34;5078057;28;19932;-69
2023/05/05 11:23:08;;;;;;;;;;;;;;;20.70;83.88;97960.13;5077266;28;19963;-70
2023/05/05 11:25:47;;;;;;;;;;;;;;;20.90;81.02;97968.31;5074274;28;19932;-69
2023/05/05 11:28:16;;;;;;;;;;;;;;;20.97;81.60;97960.44;5077402;28;20015;-69
2023/05/05 11:30:57;;;;;;;;;;;;;;;21.02;80.05;97959.44;5076874;28;19925;-69
2023/05/05 11:33:24;;;;;;;;;;;;;;;21.04;80.18;97956.41;5073190;28;19930;-69
2023/05/05 11:35:54;;;;;;;;;;;;;;;21.22;79.76;97941.63;5072302;28;19931;-70
2023/05/05 11:38:22;;;;;;;;;;;;;;;21.23;80.30;97940.50;5076580;28;19925;-70
2023/05/05 11:40:49;;;;;;;;;;;;;;;21.17;82.48;97933.69;5077072;28;19984;-70
2023/05/05 11:43:19;;;;;;;;;;;;;;;21.35;82.58;97933.19;5080633;28;19920;-70
2023/05/05 11:45:46;;;;;;;;;;;;;;;21.37;83.65;97933.66;5080597;28;19924;-70
2023/05/05 11:48:24;;;;;;;;;;;;;;;21.13;85.10;97932.75;5076272;28;19997;-70
2023/05/05 11:50:51;;;;;;;;;;;;;;;21.38;84.51;97927.13;5075887;28;20059;-70
2023/05/05 11:53:18;;;;;;;;;;;;;;;21.61;84.08;97934.88;5080284;28;19924;-69
2023/05/05 11:55:45;;;;;;;;;;;;;;;21.64;80.49;97926.88;5080562;28;19936;-70
2023/05/05 11:58:18;;;;;;;;;;;;;;;21.64;79.70;97926.88;5078429;28;19939;-70
2023/05/05 12:00:46;;;;;;;;;;;;;;;21.69;81.51;97920.44;5085808;28;19960;-70
2023/05/05 12:03:13;;;;;;;;;;;;;;;21.78;78.36;97916.50;5085161;28;19925;-70
2023/05/05 12:05:40;;;;;;;;;;;;;;;21.86;76.70;97909.38;5077869;28;19984;-70
2023/05/05 12:08:06;;;;;;;;;;;;;;;21.86;78.63;97912.09;5083310;28;19924;-70
2023/05/05 12:10:33;;;;;;;;;;;;;;;21.80;79.76;97914.25;5086605;28;19995;-70
2023/05/05 12:12:59;;;;;;;;;;;;;;;21.97;79.38;97897.00;5085424;28;19975;-70
2023/05/05 12:15:29;;;;;;;;;;;;;;;21.90;79.14;97900.25;5084315;28;19996;-70
2023/05/05 12:17:57;;;;;;;;;;;;;;;21.81;83.16;97901.44;5083292;28;19924;-70
2023/05/05 12:20:30;;;;;;;;;;;;;;;21.90;80.49;97899.47;5082244;28;19963;-69
2023/05/05 12:22:59;;;;;;;;;;;;;;;22.03;78.30;97898.34;5085445;28;19958;-69
2023/05/05 12:25:25;;;;;;;;;;;;;;;22.05;77.33;97890.66;5085673;28;19958;-69
2023/05/05 12:27:52;;;;;;;;;;;;;;;22.17;77.04;97889.84;5084425;28;19995;-69
2023/05/05 12:30:19;;;;;;;;;;;;;;;22.08;76.18;97884.53;5087867;28;19928;-70
2023/05/05 12:32:46;;;;;;;;;;;;;;;22.18;76.53;97886.00;5082504;28;19925;-70
2023/05/05 12:35:14;;;;;;;;;;;;;;;22.09;78.36;97882.59;5075305;28;19927;-71
2023/05/05 12:37:42;;;;;;;;;;;;;;;22.10;80.31;97874.09;5076587;28;19931;-71
2023/05/05 12:40:29;;;;;;;;;;;;;;;22.33;79.19;97877.97;5081493;28;19928;-71
2023/05/05 12:42:56;;;;;;;;;;;;;;;22.39;78.73;97870.38;5080824;28;19988;-70
2023/05/05 12:45:22;;;;;;;;;;;;;;;22.44;78.04;97876.38;5084032;28;19988;-69
2023/05/05 12:47:48;;;;;;;;;;;;;;;22.50;78.65;97874.22;5083594;28;19971;-68